Time;durP1;ratioP1;P1;durP2;ratioP2;P2;SDS_P1;SDS_P2;PMS_P1;PMS_P2;Temp;Humidity;BMP_temperature;BMP_pressure;BME280_temperature;BME280_humidity;BME280_pressure;Samples;Min_cycle;Max_cycle;Signal;HPM_P1;HPM_P2
2023/05/27 00:00:51;;;;;;;14.68;7.15;;;;;;;12.91;64.79;96719.34;2099444;28;20341;-58
2023/05/27 00:01:52;;;;;;;12.20;7.10;;;;;;;12.87;65.25;96715.19;2099006;28;20052;-57
2023/05/27 00:02:53;;;;;;;14.85;7.28;;;;;;;12.80;65.12;96699.84;2099008;28;20057;-58
2023/05/27 00:03:54;;;;;;;12.65;7.70;;;;;;;12.90;64.52;96710.69;2099256;28;20063;-58
2023/05/27 00:04:55;;;;;;;11.15;6.90;;;;;;;12.87;65.29;96721.25;2099452;28;20040;-58
2023/05/27 00:05:56;;;;;;;12.32;6.93;;;;;;;12.83;64.79;96717.13;2099290;28;20036;-57
2023/05/27 00:06:57;;;;;;;12.25;7.10;;;;;;;12.82;64.74;96709.34;2099467;28;20495;-58
2023/05/27 00:07:59;;;;;;;14.95;7.80;;;;;;;12.79;65.42;96712.94;2099613;28;20055;-58
2023/05/27 00:09:00;;;;;;;15.52;7.32;;;;;;;12.78;65.00;96712.09;2098506;28;20371;-57
2023/05/27 00:10:01;;;;;;;14.77;8.00;;;;;;;12.79;65.14;96712.94;2098769;28;20048;-57
2023/05/27 00:11:02;;;;;;;10.32;7.55;;;;;;;12.75;65.07;96714.84;2098810;28;20075;-58
2023/05/27 00:12:04;;;;;;;13.25;7.03;;;;;;;12.69;65.27;96696.00;2098242;28;20078;-58
2023/05/27 00:13:05;;;;;;;13.52;7.25;;;;;;;12.72;65.04;96693.25;2098427;28;20048;-58
2023/05/27 00:14:06;;;;;;;14.98;7.93;;;;;;;12.77;64.93;96707.78;2099132;28;20162;-57
2023/05/27 00:15:08;;;;;;;14.65;7.03;;;;;;;12.76;65.09;96706.09;2098725;28;20389;-57
2023/05/27 00:16:09;;;;;;;12.40;7.15;;;;;;;12.70;64.50;96708.16;2098466;28;20056;-58
2023/05/27 00:17:13;;;;;;;13.73;7.53;;;;;;;12.70;65.17;96713.34;2099340;28;20067;-57
2023/05/27 00:18:15;;;;;;;10.13;7.07;;;;;;;12.69;64.89;96706.44;2099167;28;20055;-58
2023/05/27 00:19:17;;;;;;;12.65;7.20;;;;;;;12.71;64.68;96708.06;2098677;28;20056;-58
2023/05/27 00:20:19;;;;;;;13.70;6.70;;;;;;;12.66;64.90;96715.22;2099360;28;20352;-58
2023/05/27 00:21:20;;;;;;;13.32;7.00;;;;;;;12.63;65.15;96711.94;2098312;28;20468;-57
2023/05/27 00:22:22;;;;;;;11.50;7.38;;;;;;;12.59;65.14;96711.22;2098436;28;20056;-57
2023/05/27 00:23:23;;;;;;;12.45;7.13;;;;;;;12.57;65.70;96716.50;2098415;28;20056;-58
2023/05/27 00:24:25;;;;;;;12.35;7.43;;;;;;;12.55;65.30;96707.88;2098465;28;20052;-57
2023/05/27 00:25:26;;;;;;;13.75;7.43;;;;;;;12.46;65.23;96692.66;2098630;28;20057;-58
2023/05/27 00:26:27;;;;;;;13.27;6.85;;;;;;;12.58;65.31;96710.34;2099187;28;20067;-58
2023/05/27 00:27:28;;;;;;;12.43;6.90;;;;;;;12.61;65.02;96711.13;2098309;28;20480;-58
2023/05/27 00:28:31;;;;;;;12.40;7.25;;;;;;;12.57;65.14;96708.66;2090588;28;20053;-60
2023/05/27 00:29:32;;;;;;;10.90;7.18;;;;;;;12.55;65.64;96707.88;2089795;28;20140;-60
2023/05/27 00:30:33;;;;;;;16.95;7.28;;;;;;;12.53;65.14;96714.06;2090117;28;20060;-60
2023/05/27 00:31:34;;;;;;;11.45;6.88;;;;;;;12.51;65.07;96705.47;2089879;28;20435;-60
2023/05/27 00:32:35;;;;;;;12.90;7.38;;;;;;;12.49;65.20;96715.13;2082087;28;20041;-60
2023/05/27 00:33:37;;;;;;;11.13;6.97;;;;;;;12.40;65.93;96711.16;2081745;28;20049;-60
2023/05/27 00:34:38;;;;;;;11.95;7.00;;;;;;;12.40;65.53;96713.75;2073711;28;20421;-60
2023/05/27 00:35:40;;;;;;;13.35;7.22;;;;;;;12.34;65.60;96707.06;2082004;28;20049;-60
2023/05/27 00:36:41;;;;;;;15.80;7.65;;;;;;;12.39;65.50;96712.06;2089906;28;20049;-60
2023/05/27 00:37:42;;;;;;;14.48;7.05;;;;;;;12.39;65.59;96711.22;2089455;28;20059;-60
2023/05/27 00:38:43;;;;;;;10.95;6.95;;;;;;;12.36;65.85;96709.59;2090017;28;20365;-60
2023/05/27 00:39:44;;;;;;;14.75;7.63;;;;;;;12.38;65.41;96709.56;2099032;28;20228;-60
2023/05/27 00:40:46;;;;;;;14.02;7.10;;;;;;;12.36;65.68;96713.06;2089267;28;20097;-60
2023/05/27 00:41:50;;;;;;;14.18;7.22;;;;;;;12.34;65.63;96714.03;2089151;28;20064;-60
2023/05/27 00:42:51;;;;;;;14.88;7.18;;;;;;;12.31;65.09;96714.16;2089357;28;20057;-59
2023/05/27 00:43:53;;;;;;;13.27;6.78;;;;;;;12.28;65.67;96709.94;2090015;28;20047;-60
2023/05/27 00:44:54;;;;;;;15.27;7.28;;;;;;;12.28;65.35;96703.88;2089501;28;20056;-59
2023/05/27 00:45:55;;;;;;;13.52;6.65;;;;;;;12.26;65.81;96710.91;2090200;28;20551;-60
2023/05/27 00:46:56;;;;;;;12.80;7.05;;;;;;;12.24;65.43;96704.91;2098981;28;20052;-60
2023/05/27 00:47:58;;;;;;;16.98;7.10;;;;;;;12.24;65.27;96707.50;2090163;28;20056;-60
2023/05/27 00:48:59;;;;;;;12.35;7.18;;;;;;;12.25;65.14;96709.22;2090034;28;20105;-60
2023/05/27 00:50:01;;;;;;;17.15;7.70;;;;;;;12.19;65.68;96699.91;2098608;28;20052;-60
2023/05/27 00:51:03;;;;;;;11.55;7.25;;;;;;;12.29;65.38;96705.56;2081806;28;20045;-59
2023/05/27 00:52:04;;;;;;;11.77;7.00;;;;;;;12.27;64.52;96707.38;2081756;28;20073;-59
2023/05/27 00:53:05;;;;;;;11.73;6.43;;;;;;;12.15;65.16;96698.34;2098158;28;20476;-59
2023/05/27 00:54:07;;;;;;;15.63;6.55;;;;;;;12.22;64.39;96705.00;2089242;28;20055;-60
2023/05/27 00:55:08;;;;;;;16.08;6.47;;;;;;;12.16;64.53;96699.19;2090112;28;20044;-59
2023/05/27 00:56:10;;;;;;;13.82;7.22;;;;;;;12.18;65.23;96707.78;2098527;28;20045;-60
2023/05/27 00:57:11;;;;;;;14.40;7.28;;;;;;;12.14;65.25;96707.91;2089050;28;20060;-59
2023/05/27 00:58:12;;;;;;;12.38;6.65;;;;;;;12.12;65.34;96703.69;2080761;28;20063;-59
2023/05/27 00:59:13;;;;;;;10.70;6.72;;;;;;;12.12;65.67;96709.72;2081286;28;20056;-60
2023/05/27 01:00:14;;;;;;;12.52;6.88;;;;;;;12.03;65.37;96691.91;2073308;28;20065;-59
2023/05/27 01:01:15;;;;;;;11.73;6.53;;;;;;;12.09;65.17;96706.41;2073321;28;20041;-60
2023/05/27 01:02:17;;;;;;;15.82;6.28;;;;;;;12.08;64.83;96697.78;2089546;28;20057;-59
2023/05/27 01:03:20;;;;;;;10.85;6.78;;;;;;;12.10;65.29;96701.13;2090184;28;20501;-60
2023/05/27 01:04:21;;;;;;;12.88;6.40;;;;;;;12.10;64.56;96700.28;2089765;28;20064;-60
2023/05/27 01:05:22;;;;;;;15.32;7.28;;;;;;;12.04;64.88;96684.94;2098205;28;20063;-59
2023/05/27 01:06:47;;;;;;;15.43;7.47;;;;;;;12.06;65.37;96702.19;2089114;28;20111;-60
2023/05/27 01:08:11;;;;;;;18.63;7.82;;;;;;;12.07;64.80;96701.25;2076543;28;20041;-60
2023/05/27 01:09:33;;;;;;;12.85;6.00;;;;;;;12.01;65.12;96701.53;2068596;28;20033;-59
2023/05/27 01:10:53;;;;;;;13.20;6.15;;;;;;;12.01;64.97;96701.53;2078421;28;20377;-60
2023/05/27 01:12:29;;;;;;;15.82;6.82;;;;;;;11.97;65.15;96701.72;2083697;28;20049;-60
2023/05/27 01:13:40;;;;;;;10.90;6.35;;;;;;;11.95;65.43;96698.31;2062929;28;20050;-59
2023/05/27 01:14:43;;;;;;;12.07;7.28;;;;;;;11.96;64.67;96705.22;2086104;28;20059;-60
2023/05/27 01:15:45;;;;;;;14.60;6.40;;;;;;;11.92;64.86;96696.69;2080837;28;20486;-60
2023/05/27 01:16:46;;;;;;;11.45;6.47;;;;;;;11.99;65.53;96702.50;2080897;28;20057;-60
2023/05/27 01:17:47;;;;;;;12.57;6.55;;;;;;;11.95;65.47;96701.78;2081335;28;20075;-60
2023/05/27 01:18:49;;;;;;;12.75;6.57;;;;;;;11.92;65.10;96699.28;2089765;28;20086;-60
2023/05/27 01:19:50;;;;;;;15.00;6.53;;;;;;;11.91;65.23;96700.22;2081169;28;20053;-60
2023/05/27 01:20:51;;;;;;;14.32;6.95;;;;;;;11.89;64.59;96692.47;2080788;28;20393;-60
2023/05/27 01:21:53;;;;;;;15.80;6.90;;;;;;;11.84;65.05;96683.13;2081655;28;20045;-59
2023/05/27 01:22:54;;;;;;;13.63;6.88;;;;;;;11.89;64.98;96696.81;2073480;28;20062;-62
2023/05/27 01:24:02;;;;;;;14.48;7.57;;;;;;;11.85;65.29;96697.84;2081528;28;20065;-62
2023/05/27 01:25:03;;;;;;;12.95;7.15;;;;;;;11.84;65.04;96704.81;2082734;28;20053;-62
2023/05/27 01:26:05;;;;;;;10.10;5.95;;;;;;;11.78;65.44;96696.38;2088858;28;20053;-62
2023/05/27 01:27:06;;;;;;;13.23;6.20;;;;;;;11.84;64.82;96696.13;2088799;28;20441;-62
2023/05/27 01:28:07;;;;;;;13.90;6.20;;;;;;;11.81;64.91;96697.09;2089238;28;20045;-61
2023/05/27 01:29:08;;;;;;;14.65;6.55;;;;;;;11.83;64.80;96697.88;2098457;28;20047;-62
2023/05/27 01:30:10;;;;;;;12.98;6.68;;;;;;;11.72;65.04;96673.22;2089586;28;20429;-62
2023/05/27 01:31:21;;;;;;;15.90;6.53;;;;;;;11.74;65.16;96687.88;2089217;28;20048;-61
2023/05/27 01:32:25;;;;;;;15.82;6.65;;;;;;;11.69;65.11;96698.44;2098078;28;20060;-62
2023/05/27 01:33:26;;;;;;;15.32;6.30;;;;;;;11.66;65.89;96688.19;2089146;28;20076;-61
2023/05/27 01:35:01;;;;;;;11.93;6.60;;;;;;;11.69;65.80;96690.66;2081110;28;20057;-62
2023/05/27 01:36:06;;;;;;;12.38;6.28;;;;;;;11.64;65.45;96689.16;2082325;28;20384;-62
2023/05/27 01:37:09;;;;;;;12.60;5.90;;;;;;;11.55;65.36;96682.56;2065407;28;20045;-62
2023/05/27 01:38:15;;;;;;;15.00;6.57;;;;;;;11.56;66.29;96692.06;2073842;28;20064;-62
2023/05/27 01:39:17;;;;;;;12.40;6.72;;;;;;;11.59;66.12;96689.31;2081496;28;20053;-62
2023/05/27 01:40:18;;;;;;;13.55;6.97;;;;;;;11.54;65.67;96685.22;2081004;28;20057;-62
2023/05/27 01:41:21;;;;;;;14.82;6.80;;;;;;;11.46;66.29;96678.56;2073457;28;20037;-62
2023/05/27 01:42:22;;;;;;;11.52;6.40;;;;;;;11.55;65.93;96698.16;2072982;28;20050;-62
2023/05/27 01:43:23;;;;;;;10.15;6.40;;;;;;;11.50;66.37;96689.69;2072922;28;20062;-62
2023/05/27 01:44:25;;;;;;;12.90;6.40;;;;;;;11.47;66.19;96688.06;2073360;28;20054;-62
2023/05/27 01:45:26;;;;;;;11.70;6.28;;;;;;;11.49;66.08;96688.00;2081218;28;20056;-61
2023/05/27 01:46:27;;;;;;;14.20;6.63;;;;;;;11.49;66.09;96688.00;2080289;28;20061;-61
2023/05/27 01:47:28;;;;;;;13.95;6.15;;;;;;;11.40;66.67;96678.81;2073205;28;20437;-61
2023/05/27 01:48:30;;;;;;;9.93;6.30;;;;;;;11.41;66.49;96684.84;2073383;28;20069;-62
2023/05/27 01:49:31;;;;;;;10.85;6.22;;;;;;;11.51;66.73;96687.94;2089489;28;20060;-62
2023/05/27 01:50:33;;;;;;;13.73;6.50;;;;;;;11.36;66.19;96687.66;2088809;28;20416;-62
2023/05/27 01:51:34;;;;;;;13.00;7.03;;;;;;;11.42;66.01;96695.19;2080502;28;20045;-62
2023/05/27 01:52:35;;;;;;;15.73;6.93;;;;;;;11.38;66.26;96691.00;2088426;28;20057;-62
2023/05/27 01:53:37;;;;;;;10.77;6.22;;;;;;;11.39;66.76;96684.94;2088510;28;20061;-61
2023/05/27 01:54:38;;;;;;;10.77;6.07;;;;;;;11.36;66.76;96694.56;2080735;28;20061;-62
2023/05/27 01:55:40;;;;;;;18.38;7.05;;;;;;;11.34;66.79;96686.84;2080738;28;20163;-62
2023/05/27 01:56:41;;;;;;;11.80;6.10;;;;;;;11.36;66.12;96694.56;2089175;28;20123;-62
2023/05/27 01:57:42;;;;;;;14.70;6.85;;;;;;;11.33;67.24;96686.91;2089226;28;20045;-62
2023/05/27 01:58:43;;;;;;;13.63;6.60;;;;;;;11.22;66.65;96682.13;2081011;28;20053;-62
2023/05/27 01:59:44;;;;;;;18.27;7.30;;;;;;;11.30;66.54;96681.81;2080108;28;20054;-62
2023/05/27 02:00:45;;;;;;;12.48;6.60;;;;;;;11.29;67.27;96680.16;2080411;28;20465;-62
2023/05/27 02:01:46;;;;;;;8.73;6.10;;;;;;;11.26;66.75;96687.16;2097145;28;20059;-61
2023/05/27 02:02:48;;;;;;;11.70;6.80;;;;;;;11.29;66.58;96672.34;2089023;28;20064;-68
2023/05/27 02:03:49;;;;;;;12.65;6.70;;;;;;;11.26;66.72;96675.91;2080778;28;20125;-71
2023/05/27 02:04:50;;;;;;;13.93;6.90;;;;;;;11.18;66.90;96678.81;2089257;28;20132;-70
2023/05/27 02:05:51;;;;;;;13.25;6.32;;;;;;;11.19;67.30;96679.66;2089229;28;20056;-70
2023/05/27 02:06:53;;;;;;;11.80;5.78;;;;;;;11.12;67.61;96663.47;2097573;28;20510;-71
2023/05/27 02:07:55;;;;;;;16.08;6.47;;;;;;;11.15;67.42;96675.50;2097509;28;20063;-71
2023/05/27 02:08:56;;;;;;;12.80;6.63;;;;;;;11.14;68.25;96677.22;2088728;28;20052;-71
2023/05/27 02:09:57;;;;;;;11.63;6.20;;;;;;;11.11;68.28;96677.34;2080852;28;20060;-70
2023/05/27 02:10:59;;;;;;;15.70;6.88;;;;;;;11.09;67.36;96680.91;2080561;28;20053;-71
2023/05/27 02:12:00;;;;;;;12.88;6.88;;;;;;;11.06;67.77;96679.25;2088702;28;20049;-71
2023/05/27 02:13:02;;;;;;;10.25;6.03;;;;;;;11.03;67.80;96669.00;2089156;28;20041;-70
2023/05/27 02:14:05;;;;;;;15.07;6.75;;;;;;;11.05;67.38;96682.78;2080725;28;20176;-70
2023/05/27 02:15:07;;;;;;;13.07;6.93;;;;;;;11.08;67.38;96684.41;2080781;28;20053;-70
2023/05/27 02:16:08;;;;;;;14.73;6.45;;;;;;;11.04;67.48;96681.94;2080399;28;20176;-71
2023/05/27 02:17:09;;;;;;;12.30;6.55;;;;;;;11.00;67.75;96682.09;2080478;28;20369;-70
2023/05/27 02:18:12;;;;;;;13.43;6.78;;;;;;;10.96;67.99;96683.13;2081125;28;20041;-71
2023/05/27 02:19:13;;;;;;;11.98;6.80;;;;;;;10.94;67.98;96684.94;2081160;28;20037;-71
2023/05/27 02:20:15;;;;;;;13.38;5.93;;;;;;;10.93;67.78;96680.63;2080713;28;20057;-70
2023/05/27 02:21:16;;;;;;;11.93;6.78;;;;;;;10.95;68.25;96689.22;2081261;28;20057;-70
2023/05/27 02:22:19;;;;;;;15.60;7.22;;;;;;;10.98;68.61;96679.56;2088346;28;20500;-71
2023/05/27 02:23:20;;;;;;;13.15;7.18;;;;;;;10.97;68.14;96682.22;2080423;28;20550;-71
2023/05/27 02:24:21;;;;;;;11.90;5.55;;;;;;;10.89;68.17;96679.06;2089335;28;20049;-71
2023/05/27 02:25:23;;;;;;;13.23;6.28;;;;;;;10.84;68.75;96688.78;2088490;28;20397;-71
2023/05/27 02:26:25;;;;;;;13.40;6.50;;;;;;;10.76;68.26;96673.47;2089165;28;20053;-70
2023/05/27 02:27:26;;;;;;;16.95;7.03;;;;;;;10.80;68.48;96683.72;2080281;28;20102;-70
2023/05/27 02:28:27;;;;;;;11.80;6.15;;;;;;;10.74;68.62;96678.72;2072575;28;20057;-57
2023/05/27 02:29:29;;;;;;;18.73;7.40;;;;;;;10.76;68.73;96682.13;2089048;28;20051;-58
2023/05/27 02:30:33;;;;;;;13.10;6.75;;;;;;;10.70;68.43;96674.56;2072357;28;20053;-57
2023/05/27 02:31:35;;;;;;;14.20;6.72;;;;;;;10.77;68.04;96688.16;2073142;28;20476;-58
2023/05/27 02:32:36;;;;;;;16.65;6.43;;;;;;;10.77;68.58;96685.56;2088777;28;20060;-57
2023/05/27 02:33:37;;;;;;;11.95;6.65;;;;;;;10.80;68.63;96685.47;2088793;28;20056;-56
2023/05/27 02:34:40;;;;;;;13.18;6.18;;;;;;;10.75;68.39;96680.44;2080086;28;20505;-56
2023/05/27 02:35:41;;;;;;;12.80;6.47;;;;;;;10.69;68.20;96678.06;2089448;28;20048;-56
2023/05/27 02:36:43;;;;;;;12.73;6.63;;;;;;;10.70;68.63;96687.53;2097273;28;20087;-56
2023/05/27 02:37:44;;;;;;;20.83;6.43;;;;;;;10.71;67.92;96681.44;2088912;28;20045;-56
2023/05/27 02:38:45;;;;;;;11.73;6.32;;;;;;;10.68;68.70;96680.72;2080352;28;20069;-56
2023/05/27 02:39:46;;;;;;;13.30;6.15;;;;;;;10.64;68.79;96689.50;2089289;28;20388;-57
2023/05/27 02:40:48;;;;;;;13.43;6.25;;;;;;;10.57;68.96;96675.91;2088466;28;20056;-56
2023/05/27 02:41:49;;;;;;;10.25;5.85;;;;;;;10.62;68.09;96679.19;2089076;28;20176;-56
2023/05/27 02:42:50;;;;;;;13.23;6.45;;;;;;;10.62;68.83;96679.19;2080420;28;20124;-57
2023/05/27 02:43:51;;;;;;;13.00;6.60;;;;;;;10.61;68.97;96677.47;2080453;28;20049;-56
2023/05/27 02:44:52;;;;;;;15.57;6.15;;;;;;;10.58;69.02;96686.25;2080769;28;20497;-56
2023/05/27 02:45:54;;;;;;;15.95;6.70;;;;;;;10.58;68.54;96682.78;2080287;28;20056;-56
2023/05/27 02:46:55;;;;;;;16.17;6.60;;;;;;;10.59;68.39;96677.56;2088410;28;20048;-56
2023/05/27 02:47:59;;;;;;;13.68;5.75;;;;;;;10.55;67.97;96682.91;2088417;28;20460;-57
2023/05/27 02:49:00;;;;;;;12.63;6.43;;;;;;;10.50;68.84;96684.81;2089212;28;20044;-57
2023/05/27 02:50:01;;;;;;;14.80;6.47;;;;;;;10.48;68.94;96681.44;2097364;28;20055;-56
2023/05/27 02:51:03;;;;;;;13.10;6.47;;;;;;;10.52;68.63;96686.44;2088315;28;20049;-56
2023/05/27 02:52:05;;;;;;;13.73;5.90;;;;;;;10.49;68.97;96678.78;2088774;28;20051;-56
2023/05/27 02:53:06;;;;;;;12.45;6.50;;;;;;;10.42;69.15;96671.25;2080116;28;20049;-56
2023/05/27 02:54:07;;;;;;;14.35;6.20;;;;;;;10.46;68.99;96680.66;2088202;28;20125;-56
2023/05/27 02:55:08;;;;;;;11.40;6.32;;;;;;;10.44;68.30;96682.44;2080728;28;20464;-56
2023/05/27 02:56:10;;;;;;;16.00;6.68;;;;;;;10.42;68.49;96679.88;2080664;28;20460;-56
2023/05/27 02:57:11;;;;;;;15.82;6.63;;;;;;;10.46;68.87;96680.66;2080975;28;20041;-56
2023/05/27 02:58:12;;;;;;;14.48;6.18;;;;;;;10.45;68.47;96677.22;2080627;28;20049;-56
2023/05/27 02:59:13;;;;;;;16.85;6.75;;;;;;;10.54;67.80;96681.22;2080937;28;20479;-57
2023/05/27 03:00:14;;;;;;;11.57;6.22;;;;;;;10.50;68.13;96679.63;2080978;28;20116;-56
2023/05/27 03:01:16;;;;;;;13.10;6.70;;;;;;;10.48;69.00;96676.25;2079980;28;20060;-56
2023/05/27 03:02:17;;;;;;;11.45;6.07;;;;;;;10.41;68.51;96675.59;2088840;28;20079;-56
2023/05/27 03:03:18;;;;;;;12.98;5.70;;;;;;;10.35;68.48;96671.47;2098005;28;20048;-56
2023/05/27 03:04:21;;;;;;;12.60;5.90;;;;;;;10.32;68.72;96679.38;2097298;28;20053;-57
2023/05/27 03:05:22;;;;;;;13.10;6.35;;;;;;;10.24;69.10;96678.78;2098228;28;20048;-56
2023/05/27 03:06:24;;;;;;;10.85;6.25;;;;;;;10.19;70.38;96670.31;2090267;28;20057;-56
2023/05/27 03:07:25;;;;;;;12.63;7.13;;;;;;;10.14;70.22;96672.22;2090120;28;20048;-56
2023/05/27 03:08:26;;;;;;;11.55;6.55;;;;;;;10.09;70.11;96674.94;2098965;28;20097;-56
2023/05/27 03:09:27;;;;;;;12.73;5.97;;;;;;;10.05;70.54;96672.50;2099218;28;20404;-56
2023/05/27 03:10:29;;;;;;;11.65;6.25;;;;;;;10.05;70.47;96672.50;2098999;28;20100;-56
2023/05/27 03:11:30;;;;;;;13.05;6.43;;;;;;;10.00;70.48;96669.25;2099769;28;20055;-56
2023/05/27 03:12:32;;;;;;;12.20;6.78;;;;;;;9.97;70.77;96675.38;2089654;28;20085;-56
2023/05/27 03:13:33;;;;;;;12.00;6.22;;;;;;;9.91;71.14;96680.75;2082626;28;20045;-58
2023/05/27 03:14:34;;;;;;;13.98;6.07;;;;;;;9.88;71.07;96671.34;2074152;28;20057;-58
2023/05/27 03:15:35;;;;;;;15.73;6.43;;;;;;;9.86;70.94;96673.16;2090711;28;20067;-58
2023/05/27 03:16:37;;;;;;;11.32;5.55;;;;;;;9.84;70.95;96666.31;2089930;28;20193;-58
2023/05/27 03:17:38;;;;;;;12.75;6.47;;;;;;;9.84;71.94;96674.09;2082471;28;20057;-58
2023/05/27 03:18:39;;;;;;;17.95;6.32;;;;;;;9.78;71.94;96671.69;2090285;28;20163;-58
2023/05/27 03:19:41;;;;;;;13.32;6.25;;;;;;;9.73;71.37;96671.88;2089835;28;20053;-58
2023/05/27 03:20:42;;;;;;;15.00;6.88;;;;;;;9.70;71.49;96680.59;2090692;28;20048;-58
2023/05/27 03:21:43;;;;;;;14.98;6.88;;;;;;;9.68;71.49;96676.34;2089885;28;20052;-58
2023/05/27 03:22:44;;;;;;;14.18;7.20;;;;;;;9.48;71.73;96651.91;2082385;28;20041;-58
2023/05/27 03:23:46;;;;;;;14.13;6.10;;;;;;;9.65;71.92;96673.84;2081799;28;20064;-58
2023/05/27 03:24:47;;;;;;;12.55;6.53;;;;;;;9.62;71.53;96674.81;2081835;28;20060;-58
2023/05/27 03:25:48;;;;;;;11.45;5.95;;;;;;;9.60;71.76;96675.75;2082119;28;20442;-58
2023/05/27 03:26:49;;;;;;;17.02;6.63;;;;;;;9.72;71.38;96680.53;2089960;28;20159;-58
2023/05/27 03:27:50;;;;;;;12.43;6.00;;;;;;;9.72;71.69;96680.53;2089943;28;20056;-58
2023/05/27 03:28:52;;;;;;;11.30;6.88;;;;;;;9.68;72.32;96677.19;2074207;28;20041;-58
2023/05/27 03:29:53;;;;;;;12.15;5.85;;;;;;;9.67;71.38;96687.63;2082746;28;20049;-60
2023/05/27 03:30:55;;;;;;;13.50;6.07;;;;;;;9.64;71.76;96685.13;2090475;28;20445;-58
2023/05/27 03:32:12;;;;;;;16.40;6.75;;;;;;;9.75;71.50;96685.63;2081717;28;20516;-58
2023/05/27 03:33:14;;;;;;;14.05;6.40;;;;;;;9.71;71.52;96681.44;2084022;28;20405;-58
2023/05/27 03:34:15;;;;;;;16.20;6.55;;;;;;;9.69;71.12;96681.47;2082299;28;20049;-58
2023/05/27 03:35:16;;;;;;;16.67;5.97;;;;;;;9.74;70.93;96680.50;2081964;28;20068;-57
2023/05/27 03:36:20;;;;;;;12.52;6.35;;;;;;;9.68;71.15;96679.78;2081933;28;20053;-58
2023/05/27 03:37:22;;;;;;;13.23;6.25;;;;;;;9.72;71.29;96665.81;2089747;28;20045;-58
2023/05/27 03:38:36;;;;;;;17.33;6.45;;;;;;;9.74;70.53;96678.75;2083415;28;20401;-58
2023/05/27 03:39:37;;;;;;;14.55;5.80;;;;;;;9.71;71.26;96678.84;2089939;28;20049;-57
2023/05/27 03:40:39;;;;;;;13.35;6.18;;;;;;;9.69;70.84;96673.69;2089802;28;20480;-56
2023/05/27 03:41:43;;;;;;;14.82;5.45;;;;;;;9.71;71.33;96678.84;2082168;28;20061;-58
2023/05/27 03:42:47;;;;;;;10.55;5.22;;;;;;;9.69;71.59;96678.03;2082265;28;20053;-58
2023/05/27 03:43:52;;;;;;;11.00;5.88;;;;;;;9.67;71.45;96679.84;2090521;28;20041;-58
2023/05/27 03:44:55;;;;;;;13.23;6.43;;;;;;;9.69;71.20;96680.63;2081651;28;20045;-58
2023/05/27 03:45:56;;;;;;;16.23;6.10;;;;;;;9.65;71.21;96681.63;2081631;28;20057;-58
2023/05/27 03:46:57;;;;;;;15.75;6.80;;;;;;;9.64;71.53;96677.34;2090514;28;20473;-58
2023/05/27 03:47:58;;;;;;;14.15;5.93;;;;;;;9.62;71.84;96674.81;2090150;28;20048;-58
2023/05/27 03:49:00;;;;;;;10.70;5.70;;;;;;;9.66;70.77;96680.75;2082042;28;20152;-58
2023/05/27 03:50:02;;;;;;;12.00;5.32;;;;;;;9.68;71.00;96678.97;2090632;28;20424;-58
2023/05/27 03:51:05;;;;;;;14.05;6.20;;;;;;;9.70;70.82;96665.03;2089704;28;20041;-58
2023/05/27 03:52:06;;;;;;;12.68;5.43;;;;;;;9.61;70.94;96652.34;2089550;28;20045;-58
2023/05/27 03:53:07;;;;;;;18.52;5.88;;;;;;;9.70;70.82;96661.56;2090174;28;20052;-58
2023/05/27 03:54:08;;;;;;;13.95;5.82;;;;;;;9.69;70.70;96659.88;2090629;28;20044;-58
2023/05/27 03:55:10;;;;;;;14.88;6.35;;;;;;;9.76;70.41;96676.13;2090996;28;20496;-58
2023/05/27 03:56:11;;;;;;;13.27;6.15;;;;;;;9.79;70.51;96679.44;2089929;28;20065;-58
2023/05/27 03:57:12;;;;;;;13.68;6.65;;;;;;;9.84;70.17;96674.09;2081874;28;20096;-58
2023/05/27 03:58:14;;;;;;;16.23;6.35;;;;;;;9.81;70.08;96672.47;2090296;28;20049;-58
2023/05/27 03:59:15;;;;;;;13.70;5.45;;;;;;;9.84;70.03;96679.28;2089633;28;20068;-58
2023/05/27 04:00:17;;;;;;;14.90;5.88;;;;;;;9.81;70.37;96674.19;2081758;28;20053;-58
2023/05/27 04:01:27;;;;;;;13.82;5.72;;;;;;;9.83;69.99;96673.22;2083094;28;20060;-58
2023/05/27 04:02:28;;;;;;;15.00;5.95;;;;;;;9.83;70.42;96675.00;2081916;28;20052;-57
2023/05/27 04:03:29;;;;;;;15.07;6.35;;;;;;;9.87;69.68;96679.19;2081942;28;20060;-58
2023/05/27 04:04:30;;;;;;;15.05;6.28;;;;;;;9.89;70.59;96672.19;2089989;28;20064;-58
2023/05/27 04:05:31;;;;;;;15.20;5.68;;;;;;;9.90;69.74;96674.72;2089669;28;20052;-58
2023/05/27 04:06:33;;;;;;;17.17;5.75;;;;;;;9.94;69.22;96676.34;2081629;28;20509;-58
2023/05/27 04:07:34;;;;;;;13.68;5.13;;;;;;;10.02;69.44;96680.41;2081940;28;20054;-58
2023/05/27 04:08:39;;;;;;;10.10;4.78;;;;;;;10.03;69.34;96669.16;2081679;28;20065;-58
2023/05/27 04:09:40;;;;;;;13.98;5.57;;;;;;;10.06;69.30;96669.03;2082114;28;20429;-58
2023/05/27 04:10:41;;;;;;;13.15;5.45;;;;;;;10.08;68.97;96677.63;2089978;28;20053;-58
2023/05/27 04:11:42;;;;;;;8.95;4.82;;;;;;;10.10;69.01;96674.06;2089619;28;20049;-58
2023/05/27 04:12:43;;;;;;;16.40;5.97;;;;;;;10.11;68.15;96662.78;2089827;28;20052;-58
2023/05/27 04:13:44;;;;;;;13.18;5.45;;;;;;;10.17;68.62;96666.91;2090541;28;20384;-58
2023/05/27 04:14:46;;;;;;;13.05;5.32;;;;;;;10.19;67.99;96672.06;2091085;28;20049;-58
2023/05/27 04:15:48;;;;;;;13.43;5.43;;;;;;;10.12;68.69;96661.03;2089514;28;20064;-58
2023/05/27 04:16:49;;;;;;;12.23;5.43;;;;;;;10.24;68.29;96673.59;2081911;28;20050;-58
2023/05/27 04:17:53;;;;;;;15.05;5.22;;;;;;;10.25;69.02;96672.69;2082040;28;20061;-58
2023/05/27 04:18:54;;;;;;;12.20;5.43;;;;;;;10.28;67.65;96671.75;2090152;28;20045;-58
2023/05/27 04:19:56;;;;;;;11.73;5.40;;;;;;;10.30;67.31;96663.00;2089487;28;20480;-58
2023/05/27 04:20:58;;;;;;;11.82;5.65;;;;;;;10.32;68.02;96673.34;2081457;28;20402;-58
2023/05/27 04:21:59;;;;;;;16.75;5.90;;;;;;;10.35;67.63;96666.28;2081834;28;20440;-58
2023/05/27 04:23:00;;;;;;;12.60;5.70;;;;;;;10.38;67.66;96671.38;2082002;28;20083;-58
2023/05/27 04:24:05;;;;;;;11.32;5.18;;;;;;;10.38;67.59;96670.53;2081532;28;20057;-58
2023/05/27 04:25:06;;;;;;;15.00;5.90;;;;;;;10.41;67.43;96672.19;2089345;28;20036;-58
2023/05/27 04:26:14;;;;;;;12.32;5.20;;;;;;;10.47;66.45;96662.41;2082762;28;20401;-57
2023/05/27 04:27:20;;;;;;;14.43;6.18;;;;;;;10.48;66.85;96671.91;2082610;28;20453;-57
2023/05/27 04:28:22;;;;;;;15.93;5.57;;;;;;;10.47;66.98;96670.19;2089642;28;20056;-58
2023/05/27 04:29:23;;;;;;;12.10;5.15;;;;;;;10.51;66.47;96676.97;2089740;28;20053;-58
2023/05/27 04:30:25;;;;;;;14.27;5.93;;;;;;;10.54;66.54;96676.03;2090382;28;20041;-58
2023/05/27 04:31:28;;;;;;;13.30;5.65;;;;;;;10.55;66.23;96672.50;2081316;28;20144;-58
2023/05/27 04:32:37;;;;;;;14.77;5.65;;;;;;;10.60;66.27;96670.59;2082315;28;20057;-58
2023/05/27 04:33:39;;;;;;;10.75;5.28;;;;;;;10.61;66.60;96672.28;2081538;28;20060;-58
2023/05/27 04:34:44;;;;;;;16.13;5.68;;;;;;;10.67;66.13;96674.69;2081617;28;20535;-58
2023/05/27 04:35:47;;;;;;;12.73;4.95;;;;;;;10.60;66.07;96660.22;2082194;28;20468;-58
2023/05/27 04:36:49;;;;;;;15.65;5.30;;;;;;;10.73;65.32;96673.59;2081357;28;20462;-58
2023/05/27 04:37:52;;;;;;;12.13;5.28;;;;;;;10.71;65.39;96672.81;2081897;28;20398;-57
2023/05/27 04:38:54;;;;;;;15.63;5.45;;;;;;;10.71;65.38;96673.63;2089894;28;20459;-58
2023/05/27 04:39:56;;;;;;;14.90;5.38;;;;;;;10.73;65.82;96676.19;2073470;28;20057;-57
2023/05/27 04:40:59;;;;;;;11.63;4.70;;;;;;;10.72;65.70;96675.34;2073513;28;20060;-58
2023/05/27 04:42:29;;;;;;;11.85;5.15;;;;;;;10.73;65.83;96671.00;2073373;28;20049;-58
2023/05/27 04:43:31;;;;;;;15.38;5.65;;;;;;;10.79;65.18;96682.00;2089371;28;20440;-58
2023/05/27 04:44:32;;;;;;;11.20;4.95;;;;;;;10.81;65.87;96680.19;2081142;28;20050;-57
2023/05/27 04:45:35;;;;;;;10.57;4.95;;;;;;;10.83;65.29;96680.16;2081692;28;20053;-57
2023/05/27 04:46:38;;;;;;;12.18;5.63;;;;;;;10.84;66.23;96681.00;2089515;28;20072;-57
2023/05/27 04:47:40;;;;;;;16.02;5.07;;;;;;;10.80;65.70;96665.53;2090058;28;20496;-57
2023/05/27 04:48:44;;;;;;;15.70;5.40;;;;;;;10.89;65.48;96681.66;2089350;28;20049;-57
2023/05/27 04:49:46;;;;;;;17.38;4.78;;;;;;;10.91;64.54;96678.13;2089545;28;20480;-57
2023/05/27 04:50:48;;;;;;;15.57;5.60;;;;;;;10.91;65.23;96678.13;2081189;28;20053;-59
2023/05/27 04:51:49;;;;;;;17.13;5.40;;;;;;;10.95;64.77;96681.44;2081138;28;20065;-57